createdAt,value
2024-03-07T00:01:15.011Z,57.25
2024-03-07T00:03:43.170Z,57.04
2024-03-07T00:06:11.396Z,56.80
2024-03-07T00:08:39.775Z,58.08
2024-03-07T00:11:08.554Z,58.18
2024-03-07T00:13:37.085Z,57.61
2024-03-07T00:16:05.243Z,57.84
2024-03-07T00:18:33.544Z,58.06
2024-03-07T00:21:01.785Z,57.43
2024-03-07T00:23:30.057Z,57.39
2024-03-07T00:25:58.029Z,56.35
2024-03-07T00:28:30.480Z,55.65
2024-03-07T00:30:58.954Z,55.94
2024-03-07T00:33:33.888Z,56.39
2024-03-07T00:36:10.905Z,56.60
2024-03-07T00:38:41.417Z,56.37
2024-03-07T00:41:09.382Z,56.40
2024-03-07T00:43:37.532Z,55.75
2024-03-07T00:46:07.594Z,55.33
2024-03-07T00:48:36.908Z,55.39
2024-03-07T00:51:05.479Z,54.97
2024-03-07T00:53:33.621Z,55.35
2024-03-07T00:56:01.569Z,56.10
2024-03-07T00:58:29.827Z,55.26
2024-03-07T01:00:57.747Z,55.25
2024-03-07T01:03:25.824Z,54.97
2024-03-07T01:05:54.024Z,55.23
2024-03-07T01:08:22.382Z,55.31
2024-03-07T01:10:50.419Z,55.65
2024-03-07T01:13:23.441Z,55.76
2024-03-07T01:15:51.921Z,55.81
2024-03-07T01:18:20.319Z,55.71
2024-03-07T01:20:48.374Z,55.89
2024-03-07T01:23:16.535Z,55.70
2024-03-07T01:25:44.438Z,56.50
2024-03-07T01:28:15.036Z,56.86
2024-03-07T01:30:42.906Z,56.74
2024-03-07T01:33:11.107Z,56.38
2024-03-07T01:35:39.112Z,55.95
2024-03-07T01:38:07.936Z,56.28
2024-03-07T01:40:35.845Z,56.56
2024-03-07T01:43:04.808Z,56.19
2024-03-07T01:45:33.151Z,56.09
2024-03-07T01:48:01.515Z,56.37
2024-03-07T01:50:30.103Z,56.12
2024-03-07T01:52:58.414Z,56.04
2024-03-07T01:55:28.296Z,54.94
2024-03-07T01:58:01.489Z,55.93
2024-03-07T02:00:29.428Z,55.25
2024-03-07T02:02:57.921Z,55.14
2024-03-07T02:05:26.004Z,55.89
2024-03-07T02:07:54.265Z,55.36
2024-03-07T02:10:22.164Z,55.17
2024-03-07T02:12:50.460Z,55.93
2024-03-07T02:15:18.746Z,55.62
2024-03-07T02:17:47.385Z,55.82
2024-03-07T02:20:17.230Z,55.81
2024-03-07T02:22:45.185Z,55.96
2024-03-07T02:25:13.923Z,55.78
2024-03-07T02:27:42.266Z,55.80
2024-03-07T02:30:11.714Z,56.49
2024-03-07T02:32:40.316Z,55.61
2024-03-07T02:35:09.719Z,55.40
2024-03-07T02:37:37.749Z,55.72
2024-03-07T02:40:06.639Z,56.14
2024-03-07T02:42:37.273Z,56.36
2024-03-07T02:45:06.311Z,55.99
2024-03-07T02:47:34.486Z,56.54
2024-03-07T02:50:02.692Z,56.42
2024-03-07T02:52:30.784Z,56.26
2024-03-07T02:54:59.078Z,56.70
2024-03-07T02:57:27.512Z,56.22
2024-03-07T02:59:55.834Z,56.66
2024-03-07T03:02:24.298Z,56.76
2024-03-07T03:04:52.795Z,56.84
2024-03-07T03:07:20.649Z,56.37
2024-03-07T03:09:48.812Z,56.74
2024-03-07T03:12:17.547Z,57.07
2024-03-07T03:14:45.674Z,56.35
2024-03-07T03:17:14.829Z,56.36
2024-03-07T03:19:42.783Z,56.90
2024-03-07T03:22:11.709Z,56.82
2024-03-07T03:24:42.457Z,56.20
2024-03-07T03:27:10.470Z,56.77
2024-03-07T03:29:38.538Z,56.57
2024-03-07T03:32:06.409Z,56.81
2024-03-07T03:34:34.797Z,57.61
2024-03-07T03:37:02.732Z,57.10
2024-03-07T03:39:31.645Z,56.98
2024-03-07T03:42:02.063Z,57.55
2024-03-07T03:44:30.678Z,57.51
2024-03-07T03:46:58.557Z,57.35
2024-03-07T03:49:26.565Z,57.87
2024-03-07T03:51:54.627Z,56.99
2024-03-07T03:54:22.776Z,57.43
2024-03-07T03:56:50.766Z,57.53
2024-03-07T03:59:18.930Z,57.90
2024-03-07T04:01:47.134Z,58.06
2024-03-07T04:04:15.400Z,58.38
2024-03-07T04:06:43.520Z,58.86
2024-03-07T04:09:11.420Z,58.89
2024-03-07T04:11:39.742Z,58.78
2024-03-07T04:14:08.049Z,58.41
2024-03-07T04:16:36.204Z,58.97
2024-03-07T04:19:04.831Z,59.59
2024-03-07T04:21:33.244Z,60.08
2024-03-07T04:24:02.168Z,59.52
2024-03-07T04:26:30.329Z,60.07
2024-03-07T04:28:59.168Z,60.65
2024-03-07T04:31:27.601Z,60.80
2024-03-07T04:33:55.495Z,60.69
2024-03-07T04:36:24.683Z,60.42
2024-03-07T04:38:53.633Z,60.67
2024-03-07T04:41:22.037Z,61.01
2024-03-07T04:43:49.997Z,61.60
2024-03-07T04:46:19.014Z,61.95
2024-03-07T04:48:46.995Z,62.17
2024-03-07T04:51:15.516Z,62.77
2024-03-07T04:53:43.779Z,63.15
2024-03-07T04:56:12.725Z,63.56
2024-03-07T04:58:40.694Z,63.33
2024-03-07T05:01:08.886Z,63.91
2024-03-07T05:03:36.861Z,63.82
2024-03-07T05:06:05.041Z,67.51
2024-03-07T05:08:34.575Z,66.46
2024-03-07T05:11:02.709Z,65.04
2024-03-07T05:13:30.578Z,65.17
2024-03-07T05:15:58.845Z,65.32
2024-03-07T05:18:26.864Z,65.72
2024-03-07T05:20:56.118Z,65.15
2024-03-07T05:23:24.101Z,65.85
2024-03-07T05:25:52.171Z,66.04
2024-03-07T05:28:20.149Z,65.84
2024-03-07T05:30:49.178Z,65.77
2024-03-07T05:33:19.242Z,66.06
2024-03-07T05:35:47.654Z,65.68
2024-03-07T05:38:15.566Z,66.50
2024-03-07T05:40:46.969Z,66.60
2024-03-07T05:43:14.815Z,66.36
2024-03-07T05:45:43.477Z,67.03
2024-03-07T05:48:18.842Z,67.29
2024-03-07T05:50:47.887Z,67.15
2024-03-07T05:53:15.962Z,67.80
2024-03-07T05:55:44.065Z,67.38
2024-03-07T05:58:11.936Z,67.15
2024-03-07T06:00:41.334Z,67.21
2024-03-07T06:03:09.628Z,67.00
2024-03-07T06:05:37.786Z,67.58
2024-03-07T06:08:08.218Z,67.38
2024-03-07T06:10:36.593Z,67.62
2024-03-07T06:13:10.462Z,67.73
2024-03-07T06:15:40.190Z,66.93
2024-03-07T06:18:12.796Z,66.72
2024-03-07T06:20:42.432Z,66.93
2024-03-07T06:23:13.527Z,68.02
2024-03-07T06:25:48.544Z,67.83
2024-03-07T06:28:17.174Z,67.72
2024-03-07T06:30:48.272Z,67.79
2024-03-07T06:33:22.888Z,67.77
2024-03-07T06:35:52.753Z,67.76
2024-03-07T06:38:21.149Z,66.35
2024-03-07T06:40:50.084Z,66.49
2024-03-07T06:43:18.814Z,66.69
2024-03-07T06:45:47.687Z,66.86
2024-03-07T06:48:16.097Z,69.53
2024-03-07T06:50:45.845Z,67.90
2024-03-07T06:53:14.222Z,66.96
2024-03-07T06:55:42.400Z,65.39
2024-03-07T06:58:11.838Z,66.08
2024-03-07T07:00:41.347Z,67.57
2024-03-07T07:03:09.539Z,66.46
2024-03-07T07:05:37.582Z,65.56
2024-03-07T07:08:06.224Z,66.39
2024-03-07T07:10:34.355Z,66.93
2024-03-07T07:13:02.547Z,65.29
2024-03-07T07:15:30.440Z,64.89
2024-03-07T07:17:59.772Z,64.69
2024-03-07T07:20:28.588Z,66.39
2024-03-07T07:22:58.802Z,66.47
2024-03-07T07:25:28.636Z,66.50
2024-03-07T07:27:56.643Z,65.79
2024-03-07T07:30:25.460Z,66.30
2024-03-07T07:32:55.045Z,65.97
2024-03-07T07:35:23.921Z,66.42
2024-03-07T07:37:55.160Z,66.23
2024-03-07T07:40:24.716Z,65.94
2024-03-07T07:42:53.723Z,64.30
2024-03-07T07:45:24.466Z,63.76
2024-03-07T07:47:54.648Z,63.39
2024-03-07T07:50:26.611Z,61.93
2024-03-07T07:52:58.888Z,62.42
2024-03-07T07:55:28.620Z,60.75
2024-03-07T07:57:58.729Z,61.76
2024-03-07T08:00:30.608Z,63.19
2024-03-07T08:03:01.681Z,63.34
2024-03-07T08:05:32.853Z,62.66
2024-03-07T08:08:07.326Z,61.58
2024-03-07T08:10:36.966Z,61.12
2024-03-07T08:13:14.451Z,60.45
2024-03-07T08:15:43.471Z,60.72
2024-03-07T08:18:12.512Z,60.03
2024-03-07T08:20:42.674Z,61.02
2024-03-07T08:23:11.509Z,60.01
2024-03-07T08:25:42.040Z,59.61
2024-03-07T08:28:10.274Z,60.78
2024-03-07T08:30:38.477Z,60.25
2024-03-07T08:33:07.450Z,59.62
2024-03-07T08:35:36.413Z,58.93
2024-03-07T08:38:06.156Z,60.09
2024-03-07T08:40:35.698Z,60.24
2024-03-07T08:43:04.738Z,59.12
2024-03-07T08:45:36.507Z,57.58
2024-03-07T08:48:11.324Z,58.22
2024-03-07T08:50:40.453Z,57.96
2024-03-07T08:53:10.099Z,56.94
2024-03-07T08:55:38.742Z,55.91
2024-03-07T08:58:10.114Z,56.73
2024-03-07T09:00:40.193Z,55.88
2024-03-07T09:03:12.021Z,55.71
2024-03-07T09:05:42.419Z,56.88
2024-03-07T09:08:10.661Z,55.91
2024-03-07T09:10:43.376Z,55.25
2024-03-07T09:13:12.216Z,56.80
2024-03-07T09:15:40.520Z,55.31
2024-03-07T09:18:09.941Z,55.82
2024-03-07T09:20:39.370Z,55.07
2024-03-07T09:23:08.033Z,53.84
2024-03-07T09:25:36.251Z,54.49
2024-03-07T09:28:04.855Z,54.41
2024-03-07T09:30:33.292Z,53.05
2024-03-07T09:33:02.932Z,54.09
2024-03-07T09:35:31.316Z,54.31
2024-03-07T09:37:59.375Z,56.42
2024-03-07T09:40:28.505Z,55.86
2024-03-07T09:42:59.472Z,54.68
2024-03-07T09:45:33.081Z,53.87
2024-03-07T09:48:01.837Z,55.51
2024-03-07T09:50:31.736Z,55.64
2024-03-07T09:53:01.287Z,56.71
2024-03-07T09:55:29.838Z,56.72
2024-03-07T09:58:01.062Z,56.12
2024-03-07T10:00:31.821Z,54.54
2024-03-07T10:03:03.917Z,53.77
2024-03-07T10:05:33.939Z,51.81
2024-03-07T10:08:02.982Z,51.85
2024-03-07T10:10:32.359Z,53.26
2024-03-07T10:13:01.665Z,51.92
2024-03-07T10:15:30.889Z,50.67
2024-03-07T10:17:59.238Z,51.07
2024-03-07T10:20:29.018Z,50.93
2024-03-07T10:23:01.694Z,52.00
2024-03-07T10:25:30.642Z,49.99
2024-03-07T10:27:59.969Z,50.31
2024-03-07T10:30:29.394Z,51.66
2024-03-07T10:33:01.632Z,52.47
2024-03-07T10:35:32.892Z,50.98
2024-03-07T10:38:02.500Z,51.91
2024-03-07T10:40:31.945Z,51.37
2024-03-07T10:43:04.565Z,52.37
2024-03-07T10:45:36.366Z,51.06
2024-03-07T10:48:05.165Z,51.22
2024-03-07T10:50:44.577Z,51.18
2024-03-07T10:53:37.606Z,50.60
2024-03-07T10:56:35.351Z,50.25
2024-03-07T10:59:35.579Z,49.52
2024-03-07T11:02:28.346Z,50.96
2024-03-07T11:04:57.746Z,50.99
2024-03-07T11:07:26.281Z,49.46
2024-03-07T11:09:56.843Z,50.71
2024-03-07T11:12:25.845Z,48.92
2024-03-07T11:14:55.856Z,51.21
2024-03-07T11:17:25.367Z,52.03
2024-03-07T11:19:53.613Z,53.58
2024-03-07T11:22:33.127Z,53.40
2024-03-07T11:25:02.316Z,53.33
2024-03-07T11:27:31.398Z,53.87
2024-03-07T11:30:09.366Z,54.06
2024-03-07T11:32:39.582Z,54.85
2024-03-07T11:35:16.322Z,54.22
2024-03-07T11:37:47.552Z,54.43
2024-03-07T11:40:21.517Z,53.91
2024-03-07T11:42:50.416Z,54.26
2024-03-07T11:45:26.505Z,55.09
2024-03-07T11:48:08.463Z,55.06
2024-03-07T11:50:41.969Z,55.47
2024-03-07T11:53:10.779Z,55.15
2024-03-07T11:55:44.644Z,55.19
2024-03-07T11:58:17.861Z,55.38
2024-03-07T12:00:47.144Z,55.57
2024-03-07T12:03:18.587Z,54.48
2024-03-07T12:05:47.845Z,54.52
2024-03-07T12:08:16.833Z,53.99
2024-03-07T12:10:49.119Z,54.81
2024-03-07T12:13:20.917Z,55.69
2024-03-07T12:15:50.025Z,55.17
2024-03-07T12:18:21.850Z,56.98
2024-03-07T12:20:56.662Z,56.43
2024-03-07T12:23:27.394Z,57.46
2024-03-07T12:26:06.626Z,58.08
2024-03-07T12:28:36.035Z,57.40
2024-03-07T12:31:06.387Z,57.48
2024-03-07T12:33:40.837Z,57.75
2024-03-07T12:36:11.688Z,56.48
2024-03-07T12:38:42.806Z,56.79
2024-03-07T12:41:15.972Z,56.60
2024-03-07T12:43:47.679Z,56.24
2024-03-07T12:46:17.358Z,56.60
2024-03-07T12:48:46.752Z,56.17
2024-03-07T12:51:19.944Z,57.10
2024-03-07T12:53:49.983Z,58.02
2024-03-07T12:56:20.629Z,58.04
2024-03-07T12:58:51.068Z,57.86
2024-03-07T13:01:21.368Z,57.78
2024-03-07T13:03:49.889Z,57.94
2024-03-07T13:06:25.423Z,56.93
2024-03-07T13:08:53.482Z,56.56
2024-03-07T13:11:22.233Z,55.26
2024-03-07T13:13:50.476Z,56.16
2024-03-07T13:16:20.255Z,56.56
2024-03-07T13:18:48.342Z,56.23
2024-03-07T13:21:18.746Z,56.82
2024-03-07T13:23:47.442Z,58.48
2024-03-07T13:26:25.522Z,57.37
2024-03-07T13:28:55.274Z,57.55
2024-03-07T13:31:25.376Z,57.31
2024-03-07T13:33:53.558Z,57.68
2024-03-07T13:36:24.611Z,56.24
2024-03-07T13:38:57.333Z,57.12
2024-03-07T13:41:27.654Z,55.94
2024-03-07T13:43:55.785Z,55.97
2024-03-07T13:46:24.058Z,55.85
2024-03-07T13:48:52.979Z,55.72
2024-03-07T13:51:21.668Z,55.82
2024-03-07T13:53:51.834Z,55.81
2024-03-07T13:57:06.804Z,55.11
2024-03-07T13:59:58.050Z,55.79
2024-03-07T14:02:47.975Z,55.65
2024-03-07T14:05:24.130Z,56.41
2024-03-07T14:08:16.308Z,56.02
2024-03-07T14:11:06.260Z,57.05
2024-03-07T14:14:02.200Z,56.93
2024-03-07T14:16:52.035Z,57.69
2024-03-07T14:19:38.516Z,57.68
2024-03-07T14:22:44.113Z,58.97
2024-03-07T14:25:21.406Z,58.64
2024-03-07T14:28:08.498Z,58.23
2024-03-07T14:30:45.037Z,58.78
2024-03-07T14:33:14.558Z,58.86
2024-03-07T14:36:05.645Z,57.71
2024-03-07T14:38:55.619Z,58.16
2024-03-07T14:41:48.449Z,56.71
2024-03-07T14:44:18.876Z,56.32
2024-03-07T14:46:51.831Z,56.12
2024-03-07T14:49:20.606Z,55.97
2024-03-07T14:51:58.622Z,56.02
2024-03-07T14:54:29.399Z,55.86
2024-03-07T14:56:57.630Z,55.00
2024-03-07T14:59:27.421Z,55.41
2024-03-07T15:01:58.655Z,55.13
2024-03-07T15:04:33.881Z,55.32
2024-03-07T15:07:03.856Z,54.51
2024-03-07T15:09:35.499Z,55.69
2024-03-07T15:12:04.049Z,55.30
2024-03-07T15:14:38.245Z,55.34
2024-03-07T15:17:08.779Z,55.06
2024-03-07T15:19:36.773Z,54.84
2024-03-07T15:22:06.014Z,54.35
2024-03-07T15:24:36.879Z,55.03
2024-03-07T15:27:05.963Z,54.75
2024-03-07T15:29:34.187Z,54.96
2024-03-07T15:32:04.110Z,55.75
2024-03-07T15:34:38.752Z,56.01
2024-03-07T15:37:08.359Z,56.19
2024-03-07T15:39:40.177Z,56.28
2024-03-07T15:42:10.708Z,56.17
2024-03-07T15:44:41.185Z,57.55
2024-03-07T15:47:09.704Z,57.13
2024-03-07T15:49:39.682Z,58.46
2024-03-07T15:52:07.672Z,58.58
2024-03-07T15:54:35.762Z,58.65
2024-03-07T15:57:05.104Z,58.96
2024-03-07T15:59:36.089Z,59.87
2024-03-07T16:02:05.984Z,59.63
2024-03-07T16:04:35.213Z,59.47
2024-03-07T16:07:04.939Z,59.67
2024-03-07T16:09:33.292Z,60.00
2024-03-07T16:12:02.882Z,59.99
2024-03-07T16:14:31.270Z,59.81
2024-03-07T16:16:59.171Z,60.01
2024-03-07T16:19:27.230Z,60.58
2024-03-07T16:21:55.205Z,61.07
2024-03-07T16:24:23.284Z,61.42
2024-03-07T16:26:52.192Z,61.75
2024-03-07T16:29:20.496Z,61.39
2024-03-07T16:31:48.864Z,61.37
2024-03-07T16:34:17.936Z,61.46
2024-03-07T16:36:47.148Z,60.70
2024-03-07T16:39:15.260Z,61.24
2024-03-07T16:41:44.070Z,60.75
2024-03-07T16:44:12.468Z,60.59
2024-03-07T16:46:41.955Z,60.43
2024-03-07T16:49:10.086Z,61.32
2024-03-07T16:51:38.083Z,60.78
2024-03-07T16:54:06.956Z,60.70
2024-03-07T16:56:41.926Z,61.39
2024-03-07T16:59:11.662Z,62.11
2024-03-07T17:01:45.610Z,61.51
2024-03-07T17:04:14.123Z,62.16
2024-03-07T17:06:42.042Z,61.82
2024-03-07T17:09:12.492Z,62.03
2024-03-07T17:11:42.285Z,62.40
2024-03-07T17:14:11.362Z,61.90
2024-03-07T17:16:39.600Z,62.61
2024-03-07T17:19:14.945Z,62.76
2024-03-07T17:21:43.369Z,63.16
2024-03-07T17:24:11.649Z,62.84
2024-03-07T17:26:39.748Z,63.23
2024-03-07T17:29:07.827Z,63.04
2024-03-07T17:31:36.697Z,63.40
2024-03-07T17:34:04.790Z,63.36
2024-03-07T17:36:33.713Z,63.63
2024-03-07T17:39:03.008Z,62.90
2024-03-07T17:41:31.205Z,63.65
2024-03-07T17:43:59.967Z,62.76
2024-03-07T17:46:28.508Z,62.81
2024-03-07T17:48:57.496Z,63.48
2024-03-07T17:51:25.453Z,62.88
2024-03-07T17:53:56.515Z,63.72
2024-03-07T17:56:27.439Z,63.30
2024-03-07T17:58:57.878Z,63.98
2024-03-07T18:01:26.865Z,63.12
2024-03-07T18:03:56.454Z,63.13
2024-03-07T18:06:24.535Z,63.23
2024-03-07T18:08:59.810Z,62.72
2024-03-07T18:11:31.654Z,63.33
2024-03-07T18:14:00.073Z,62.26
2024-03-07T18:16:28.047Z,62.62
2024-03-07T18:18:57.847Z,62.34
2024-03-07T18:21:27.412Z,62.39
2024-03-07T18:23:55.725Z,62.40
2024-03-07T18:26:23.715Z,62.65
2024-03-07T18:28:53.501Z,62.58
2024-03-07T18:31:28.438Z,62.11
2024-03-07T18:33:56.952Z,62.25
2024-03-07T18:36:24.949Z,62.43
2024-03-07T18:38:53.413Z,62.46
2024-03-07T18:41:21.580Z,62.58
2024-03-07T18:43:49.737Z,62.93
2024-03-07T18:46:17.892Z,62.58
2024-03-07T18:48:46.271Z,63.17
2024-03-07T18:51:14.300Z,62.72
2024-03-07T18:53:42.486Z,63.00
2024-03-07T18:56:11.427Z,62.14
2024-03-07T18:58:39.986Z,61.70
2024-03-07T19:01:08.752Z,62.70
2024-03-07T19:03:36.980Z,62.59
2024-03-07T19:06:10.260Z,62.79
2024-03-07T19:08:39.071Z,62.44
2024-03-07T19:11:08.140Z,62.36
2024-03-07T19:13:37.312Z,62.33
2024-03-07T19:16:10.270Z,62.52
2024-03-07T19:18:38.545Z,62.90
2024-03-07T19:21:13.159Z,62.86
2024-03-07T19:23:46.511Z,63.04
2024-03-07T19:26:21.473Z,62.93
2024-03-07T19:28:49.610Z,62.27
2024-03-07T19:31:17.715Z,62.31
2024-03-07T19:33:46.052Z,62.20
2024-03-07T19:36:17.280Z,62.37
2024-03-07T19:38:47.576Z,62.18
2024-03-07T19:41:16.233Z,61.66
2024-03-07T19:43:44.466Z,61.45
2024-03-07T19:46:13.062Z,62.13
2024-03-07T19:48:41.411Z,62.14
2024-03-07T19:51:11.292Z,62.61
2024-03-07T19:53:40.383Z,62.50
2024-03-07T19:56:09.433Z,62.74
2024-03-07T19:58:39.010Z,62.47
2024-03-07T20:01:13.110Z,62.05
2024-03-07T20:03:42.321Z,62.62
2024-03-07T20:06:11.168Z,61.88
2024-03-07T20:08:39.433Z,62.11
2024-03-07T20:11:08.464Z,62.96
2024-03-07T20:13:41.600Z,62.35
2024-03-07T20:16:10.442Z,62.10
2024-03-07T20:18:42.694Z,62.68
2024-03-07T20:21:11.708Z,62.02
2024-03-07T20:23:42.103Z,62.53
2024-03-07T20:26:10.572Z,61.92
2024-03-07T20:28:38.631Z,62.33
2024-03-07T20:31:09.610Z,62.87
2024-03-07T20:33:38.606Z,62.76
2024-03-07T20:36:10.326Z,62.87
2024-03-07T20:38:39.224Z,62.40
2024-03-07T20:41:08.220Z,62.40
2024-03-07T20:43:37.083Z,62.73
2024-03-07T20:46:07.126Z,62.96
2024-03-07T20:48:36.582Z,61.92
2024-03-07T20:51:07.356Z,62.45
2024-03-07T20:53:35.894Z,62.53
2024-03-07T20:56:07.672Z,62.23
2024-03-07T20:58:36.626Z,62.75
2024-03-07T21:01:05.398Z,62.50
2024-03-07T21:03:33.879Z,62.65
2024-03-07T21:06:02.087Z,62.46
2024-03-07T21:08:30.243Z,62.71
2024-03-07T21:10:58.771Z,62.71
2024-03-07T21:13:28.283Z,62.09
2024-03-07T21:15:57.130Z,62.40
2024-03-07T21:18:25.264Z,62.20
2024-03-07T21:20:53.690Z,62.86
2024-03-07T21:23:24.879Z,62.12
2024-03-07T21:25:53.623Z,62.97
2024-03-07T21:28:22.290Z,62.57
2024-03-07T21:30:50.654Z,62.37
2024-03-07T21:33:18.654Z,61.69
2024-03-07T21:35:47.123Z,62.01
2024-03-07T21:38:15.395Z,61.63
2024-03-07T21:40:45.165Z,61.51
2024-03-07T21:43:13.137Z,61.15
2024-03-07T21:45:41.491Z,61.20
2024-03-07T21:48:09.608Z,61.12
2024-03-07T21:50:37.939Z,61.34
2024-03-07T21:53:05.932Z,61.53
2024-03-07T21:55:34.464Z,61.31
2024-03-07T21:58:03.322Z,61.55
2024-03-07T22:00:32.656Z,60.97
2024-03-07T22:03:02.549Z,61.11
2024-03-07T22:05:34.452Z,61.38
2024-03-07T22:08:05.119Z,62.00
2024-03-07T22:10:36.676Z,62.27
2024-03-07T22:13:06.867Z,63.00
2024-03-07T22:15:36.114Z,63.70
2024-03-07T22:18:05.681Z,63.82
2024-03-07T22:20:34.324Z,63.51
2024-03-07T22:23:03.898Z,63.99
2024-03-07T22:25:32.180Z,64.42
2024-03-07T22:28:00.560Z,64.65
2024-03-07T22:30:29.020Z,64.94
2024-03-07T22:32:57.257Z,65.44
2024-03-07T22:35:25.661Z,65.11
2024-03-07T22:37:54.201Z,64.50
2024-03-07T22:40:28.972Z,64.97
2024-03-07T22:42:57.947Z,65.22
2024-03-07T22:45:27.365Z,65.36
2024-03-07T22:47:55.773Z,65.96
2024-03-07T22:50:29.762Z,65.80
2024-03-07T22:53:01.292Z,65.54
2024-03-07T22:55:31.959Z,65.63
2024-03-07T22:58:00.250Z,65.68
2024-03-07T23:00:33.673Z,65.15
2024-03-07T23:03:05.794Z,65.39
2024-03-07T23:05:34.388Z,65.61
2024-03-07T23:08:02.394Z,65.40
2024-03-07T23:10:31.276Z,65.50
2024-03-07T23:13:02.820Z,65.13
2024-03-07T23:15:32.158Z,65.50
2024-03-07T23:18:00.956Z,65.39
2024-03-07T23:20:30.115Z,65.50
2024-03-07T23:23:00.249Z,64.84
2024-03-07T23:25:29.418Z,64.88
2024-03-07T23:27:58.233Z,64.78
2024-03-07T23:30:28.112Z,64.25
2024-03-07T23:32:58.815Z,63.87
2024-03-07T23:35:28.095Z,63.80
2024-03-07T23:37:56.229Z,63.50
2024-03-07T23:40:24.413Z,63.66
2024-03-07T23:42:54.054Z,64.13
2024-03-07T23:45:22.850Z,63.68
2024-03-07T23:47:51.649Z,64.18
2024-03-07T23:50:20.819Z,64.19
2024-03-07T23:52:48.957Z,63.91
2024-03-07T23:55:18.059Z,63.70
2024-03-07T23:57:47.623Z,63.93
